Time,TemperatureF,DewpointF,PressureIn,WindDirection,WindDirectionDegrees,WindSpeedMPH,WindSpeedGustMPH,Humidity,HourlyPrecipIn,Conditions,Clouds,dailyrainin,SoftwareType,DateUTC
2013-04-12 00:02:00,50.0,29.0,29.94,WNW,282,0.0,2.0,44,0.00,,,0.00,,2013-04-12 06:02:00,
2013-04-12 00:12:00,50.0,29.0,29.94,WNW,282,0.0,2.0,44,0.00,,,0.00,,2013-04-12 06:12:00,
2013-04-12 00:22:00,49.0,29.0,29.94,WNW,282,2.0,2.0,45,0.00,,,0.00,,2013-04-12 06:22:00,
2013-04-12 00:32:00,49.0,30.0,29.95,West,281,2.0,2.0,47,0.00,,,0.00,,2013-04-12 06:32:00,
2013-04-12 00:42:00,49.0,30.0,29.95,West,281,2.0,2.0,47,0.00,,,0.00,,2013-04-12 06:42:00,
2013-04-12 00:52:00,49.0,30.0,29.95,West,281,3.0,4.0,47,0.00,,,0.00,,2013-04-12 06:52:00,
2013-04-12 01:01:00,49.0,29.0,29.95,West,281,0.0,0.0,45,0.00,,,0.00,,2013-04-12 07:01:00,
2013-04-12 01:11:00,49.0,29.0,29.95,West,281,0.0,0.0,45,0.00,,,0.00,,2013-04-12 07:11:00,
2013-04-12 01:22:00,48.0,30.0,29.94,West,277,4.0,4.0,49,0.00,,,0.00,,2013-04-12 07:22:00,
2013-04-12 01:32:00,48.0,30.0,29.94,West,265,1.0,2.0,49,0.00,,,0.00,,2013-04-12 07:32:00,
2013-04-12 01:42:00,48.0,30.0,29.94,West,265,1.0,2.0,49,0.00,,,0.00,,2013-04-12 07:42:00,
2013-04-12 01:52:00,48.0,30.0,29.95,West,265,2.0,2.0,50,0.00,,,0.00,,2013-04-12 07:52:00,
2013-04-12 02:03:00,48.0,31.0,29.94,West,268,4.0,4.0,51,0.00,,,0.00,,2013-04-12 08:03:00,
2013-04-12 02:12:00,48.0,31.0,29.94,West,268,4.0,4.0,51,0.00,,,0.00,,2013-04-12 08:12:00,
2013-04-12 02:22:00,48.0,30.0,29.94,West,269,6.0,6.0,50,0.00,,,0.00,,2013-04-12 08:22:00,
2013-04-12 02:32:00,48.0,31.0,29.93,West,275,1.0,4.0,51,0.00,,,0.00,,2013-04-12 08:32:00,
2013-04-12 02:42:00,48.0,31.0,29.93,West,275,1.0,4.0,51,0.00,,,0.00,,2013-04-12 08:42:00,
2013-04-12 02:52:00,49.0,32.0,29.93,West,277,1.0,4.0,52,0.00,,,0.00,,2013-04-12 08:52:00,
2013-04-12 03:02:00,49.0,32.0,29.96,West,277,0.0,0.0,51,0.00,,,0.00,,2013-04-12 09:02:00,
2013-04-12 03:12:00,49.0,32.0,29.96,West,277,0.0,0.0,51,0.00,,,0.00,,2013-04-12 09:12:00,
2013-04-12 03:22:00,49.0,32.0,29.96,West,277,0.0,0.0,51,0.00,,,0.00,,2013-04-12 09:22:00,
2013-04-12 03:32:00,48.0,31.0,29.95,West,277,0.0,0.0,51,0.00,,,0.00,,2013-04-12 09:32:00,
2013-04-12 03:43:00,48.0,31.0,29.95,West,277,0.0,0.0,51,0.00,,,0.00,,2013-04-12 09:43:00,
2013-04-12 03:53:00,48.0,31.0,29.95,West,276,1.0,1.0,51,0.00,,,0.00,,2013-04-12 09:53:00,
2013-04-12 04:02:00,48.0,31.0,29.95,West,276,1.0,1.0,51,0.00,,,0.00,,2013-04-12 10:02:00,
2013-04-12 04:12:00,48.0,31.0,29.95,West,276,2.0,2.0,52,0.00,,,0.00,,2013-04-12 10:12:00,
2013-04-12 04:23:00,48.0,31.0,29.95,West,276,2.0,2.0,52,0.00,,,0.00,,2013-04-12 10:23:00,
2013-04-12 04:33:00,48.0,32.0,29.95,West,276,0.0,0.0,54,0.00,,,0.00,,2013-04-12 10:33:00,
2013-04-12 04:42:00,48.0,32.0,29.95,West,276,0.0,0.0,54,0.00,,,0.00,,2013-04-12 10:42:00,
2013-04-12 04:53:00,48.0,31.0,29.95,West,276,0.0,0.0,52,0.00,,,0.00,,2013-04-12 10:53:00,
2013-04-12 05:02:00,48.0,32.0,29.94,West,276,0.0,0.0,54,0.00,,,0.00,,2013-04-12 11:02:00,
2013-04-12 05:12:00,48.0,32.0,29.94,West,276,0.0,0.0,54,0.00,,,0.00,,2013-04-12 11:12:00,
2013-04-12 05:22:00,47.0,31.0,29.95,West,276,0.0,0.0,54,0.00,,,0.00,,2013-04-12 11:22:00,
2013-04-12 05:32:00,47.0,32.0,29.94,West,276,0.0,1.0,56,0.00,,,0.00,,2013-04-12 11:32:00,
2013-04-12 05:42:00,47.0,32.0,29.94,West,276,0.0,1.0,56,0.00,,,0.00,,2013-04-12 11:42:00,
2013-04-12 05:52:00,46.0,31.0,29.94,West,276,2.0,4.0,56,0.00,,,0.00,,2013-04-12 11:52:00,
2013-04-12 06:02:00,47.0,32.0,29.94,West,276,0.0,0.0,56,0.00,,,0.00,,2013-04-12 12:02:00,
2013-04-12 06:13:00,47.0,32.0,29.94,West,276,0.0,0.0,56,0.00,,,0.00,,2013-04-12 12:13:00,
2013-04-12 06:22:00,47.0,32.0,29.94,West,276,0.0,0.0,55,0.00,,,0.00,,2013-04-12 12:22:00,
2013-04-12 06:32:00,46.0,31.0,29.96,West,276,0.0,0.0,56,0.00,,,0.00,,2013-04-12 12:32:00,
2013-04-12 06:42:00,46.0,31.0,29.96,West,276,0.0,0.0,56,0.00,,,0.00,,2013-04-12 12:42:00,
2013-04-12 06:53:00,46.0,30.0,29.97,West,276,2.0,2.0,54,0.00,,,0.00,,2013-04-12 12:53:00,
2013-04-12 07:03:00,45.0,30.0,29.97,West,276,2.0,2.0,56,0.00,,,0.00,,2013-04-12 13:03:00,
2013-04-12 07:12:00,45.0,30.0,29.97,West,276,2.0,2.0,56,0.00,,,0.00,,2013-04-12 13:12:00,
2013-04-12 07:22:00,45.0,31.0,29.98,West,276,0.0,0.0,58,0.00,,,0.00,,2013-04-12 13:22:00,
2013-04-12 07:32:00,47.0,32.0,29.98,NW,326,1.0,1.0,56,0.00,,,0.00,,2013-04-12 13:32:00,
2013-04-12 07:42:00,47.0,32.0,29.98,NW,326,1.0,1.0,56,0.00,,,0.00,,2013-04-12 13:42:00,
2013-04-12 07:53:00,49.0,32.0,29.98,NW,323,1.0,1.0,52,0.00,,,0.00,,2013-04-12 13:53:00,
2013-04-12 08:03:00,51.0,34.0,29.98,NW,322,0.0,1.0,51,0.00,,,0.00,,2013-04-12 14:03:00,
2013-04-12 08:12:00,51.0,34.0,29.98,NW,322,0.0,1.0,51,0.00,,,0.00,,2013-04-12 14:12:00,
2013-04-12 08:22:00,53.0,32.0,29.98,NNW,329,2.0,2.0,45,0.00,,,0.00,,2013-04-12 14:22:00,
2013-04-12 08:32:00,55.0,33.0,29.98,NNW,329,0.0,0.0,43,0.00,,,0.00,,2013-04-12 14:32:00,
2013-04-12 08:42:00,55.0,33.0,29.98,NNW,329,0.0,0.0,43,0.00,,,0.00,,2013-04-12 14:42:00,
2013-04-12 08:53:00,57.0,33.0,29.98,NNW,329,2.0,2.0,40,0.00,,,0.00,,2013-04-12 14:53:00,
2013-04-12 09:02:00,59.0,33.0,29.98,NNW,329,0.0,0.0,38,0.00,,,0.00,,2013-04-12 15:02:00,
2013-04-12 09:12:00,59.0,33.0,29.98,NNW,329,0.0,0.0,38,0.00,,,0.00,,2013-04-12 15:12:00,
2013-04-12 09:22:00,60.0,33.0,29.98,NNW,327,0.0,0.0,36,0.00,,,0.00,,2013-04-12 15:22:00,
2013-04-12 09:33:00,60.0,33.0,30.00,NNW,327,0.0,2.0,36,0.00,,,0.00,,2013-04-12 15:33:00,
2013-04-12 09:43:00,60.0,33.0,30.00,NNW,327,0.0,2.0,36,0.00,,,0.00,,2013-04-12 15:43:00,
2013-04-12 09:53:00,58.0,33.0,30.00,North,351,1.0,2.0,38,0.00,,,0.00,,2013-04-12 15:53:00,
2013-04-12 10:03:00,58.0,33.0,30.00,ESE,117,2.0,6.0,39,0.00,,,0.00,,2013-04-12 16:03:00,
2013-04-12 10:13:00,58.0,33.0,30.00,ESE,117,2.0,6.0,39,0.00,,,0.00,,2013-04-12 16:13:00,
2013-04-12 10:23:00,59.0,33.0,29.99,ESE,116,0.0,0.0,38,0.00,,,0.00,,2013-04-12 16:23:00,
2013-04-12 10:33:00,62.0,33.0,29.99,SSE,167,1.0,2.0,34,0.00,,,0.00,,2013-04-12 16:33:00,
2013-04-12 10:42:00,62.0,33.0,29.99,SSE,167,1.0,2.0,34,0.00,,,0.00,,2013-04-12 16:42:00,
2013-04-12 10:53:00,64.0,33.0,29.99,SSE,163,4.0,4.0,31,0.00,,,0.00,,2013-04-12 16:53:00,
2013-04-12 11:03:00,63.0,32.0,29.99,SW,222,1.0,1.0,31,0.00,,,0.00,,2013-04-12 17:03:00,
2013-04-12 11:12:00,63.0,32.0,29.99,SW,222,1.0,1.0,31,0.00,,,0.00,,2013-04-12 17:12:00,
2013-04-12 11:23:00,64.0,33.0,29.99,East,96,0.0,1.0,31,0.00,,,0.00,,2013-04-12 17:23:00,
2013-04-12 11:33:00,64.0,33.0,29.98,SE,130,3.0,3.0,31,0.00,,,0.00,,2013-04-12 17:33:00,
2013-04-12 11:44:00,64.0,33.0,29.98,SE,130,3.0,3.0,31,0.00,,,0.00,,2013-04-12 17:44:00,
2013-04-12 12:09:00,64.0,32.0,29.97,SSE,164,0.0,6.0,30,0.00,,,0.00,,2013-04-12 18:09:00,
2013-04-12 12:15:00,64.0,32.0,29.97,SSE,164,0.0,6.0,30,0.00,,,0.00,,2013-04-12 18:15:00,
2013-04-12 13:26:00,67.0,32.0,29.95,SSE,163,7.0,8.0,27,0.00,,,0.00,,2013-04-12 19:26:00,
2013-04-12 13:27:00,68.0,33.0,29.94,WNW,296,4.0,5.0,27,0.00,,,0.00,,2013-04-12 19:27:00,
2013-04-12 13:32:00,67.0,31.0,29.93,SSE,165,7.0,7.0,26,0.00,,,0.00,,2013-04-12 19:32:00,
2013-04-12 13:43:00,67.0,31.0,29.93,SSE,165,7.0,7.0,26,0.00,,,0.00,,2013-04-12 19:43:00,
2013-04-12 13:53:00,68.0,30.0,29.93,West,270,1.0,1.0,24,0.00,,,0.00,,2013-04-12 19:53:00,
2013-04-12 14:02:00,67.0,31.0,29.92,SW,218,7.0,11.0,26,0.00,,,0.00,,2013-04-12 20:02:00,
2013-04-12 14:12:00,67.0,31.0,29.92,SW,218,7.0,11.0,26,0.00,,,0.00,,2013-04-12 20:12:00,
2013-04-12 14:22:00,66.0,29.0,29.92,WNW,295,2.0,3.0,25,0.00,,,0.00,,2013-04-12 20:22:00,
2013-04-12 14:32:00,66.0,29.0,29.91,WSW,255,2.0,4.0,25,0.00,,,0.00,,2013-04-12 20:32:00,
2013-04-12 14:42:00,66.0,29.0,29.91,WSW,255,2.0,4.0,25,0.00,,,0.00,,2013-04-12 20:42:00,
2013-04-12 14:52:00,66.0,29.0,29.91,WSW,257,1.0,6.0,25,0.00,,,0.00,,2013-04-12 20:52:00,
2013-04-12 15:02:00,69.0,30.0,29.90,SW,225,2.0,2.0,23,0.00,,,0.00,,2013-04-12 21:02:00,
2013-04-12 15:12:00,69.0,30.0,29.90,SW,225,2.0,2.0,23,0.00,,,0.00,,2013-04-12 21:12:00,
2013-04-12 15:22:00,71.0,27.0,29.89,SW,224,6.0,6.0,19,0.00,,,0.00,,2013-04-12 21:22:00,
2013-04-12 15:32:00,72.0,27.0,29.91,WSW,257,8.0,8.0,19,0.00,,,0.00,,2013-04-12 21:32:00,
2013-04-12 15:43:00,72.0,27.0,29.91,WSW,257,8.0,8.0,19,0.00,,,0.00,,2013-04-12 21:43:00,
2013-04-12 15:53:00,71.0,28.0,29.90,WNW,295,0.0,4.0,20,0.00,,,0.00,,2013-04-12 21:53:00,
2013-04-12 16:02:00,71.0,27.0,29.89,East,88,5.0,5.0,19,0.00,,,0.00,,2013-04-12 22:02:00,
2013-04-12 16:12:00,71.0,27.0,29.89,East,88,5.0,5.0,19,0.00,,,0.00,,2013-04-12 22:12:00,
2013-04-12 16:22:00,70.0,23.0,29.89,WNW,298,11.0,11.0,17,0.00,,,0.00,,2013-04-12 22:22:00,
2013-04-12 16:32:00,70.0,22.0,29.88,West,273,4.0,6.0,16,0.00,,,0.00,,2013-04-12 22:32:00,
2013-04-12 16:42:00,70.0,22.0,29.88,West,273,4.0,6.0,16,0.00,,,0.00,,2013-04-12 22:42:00,
2013-04-12 16:52:00,73.0,23.0,29.88,WSW,245,4.0,4.0,15,0.00,,,0.00,,2013-04-12 22:52:00,
2013-04-12 17:03:00,73.0,23.0,29.88,WNW,291,6.0,6.0,15,0.00,,,0.00,,2013-04-12 23:03:00,
2013-04-12 17:12:00,73.0,23.0,29.88,WNW,291,6.0,6.0,15,0.00,,,0.00,,2013-04-12 23:12:00,
2013-04-12 17:22:00,71.0,21.0,29.87,WNW,297,2.0,3.0,15,0.00,,,0.00,,2013-04-12 23:22:00,
2013-04-12 17:32:00,71.0,23.0,29.87,West,271,9.0,9.0,16,0.00,,,0.00,,2013-04-12 23:32:00,
2013-04-12 17:42:00,71.0,23.0,29.87,West,271,9.0,9.0,16,0.00,,,0.00,,2013-04-12 23:42:00,
2013-04-12 17:52:00,72.0,23.0,29.88,West,280,8.0,8.0,16,0.00,,,0.00,,2013-04-12 23:52:00,
2013-04-12 18:02:00,70.0,22.0,29.88,West,269,5.0,7.0,16,0.00,,,0.00,,2013-04-13 00:02:00,
2013-04-12 18:12:00,70.0,22.0,29.88,West,269,5.0,7.0,16,0.00,,,0.00,,2013-04-13 00:12:00,
2013-04-12 18:22:00,70.0,23.0,29.88,WSW,248,5.0,6.0,17,0.00,,,0.00,,2013-04-13 00:22:00,
2013-04-12 18:32:00,69.0,22.0,29.88,West,261,3.0,5.0,17,0.00,,,0.00,,2013-04-13 00:32:00,
2013-04-12 18:42:00,69.0,22.0,29.88,West,261,3.0,5.0,17,0.00,,,0.00,,2013-04-13 00:42:00,
2013-04-12 18:52:00,69.0,22.0,29.87,WNW,286,4.0,4.0,17,0.00,,,0.00,,2013-04-13 00:52:00,
2013-04-12 19:02:00,68.0,23.0,29.87,WNW,288,4.0,4.0,18,0.00,,,0.00,,2013-04-13 01:02:00,
2013-04-12 19:12:00,68.0,23.0,29.87,WNW,288,4.0,4.0,18,0.00,,,0.00,,2013-04-13 01:12:00,
2013-04-12 19:22:00,67.0,22.0,29.87,WNW,288,2.0,4.0,18,0.00,,,0.00,,2013-04-13 01:22:00,
2013-04-12 19:32:00,66.0,21.0,29.87,WNW,288,2.0,2.0,18,0.00,,,0.00,,2013-04-13 01:32:00,
2013-04-12 19:42:00,66.0,21.0,29.87,WNW,288,2.0,2.0,18,0.00,,,0.00,,2013-04-13 01:42:00,
2013-04-12 19:52:00,65.0,22.0,29.87,WNW,288,0.0,0.0,19,0.00,,,0.00,,2013-04-13 01:52:00,
2013-04-12 20:02:00,63.0,20.0,29.88,WNW,288,1.0,2.0,19,0.00,,,0.00,,2013-04-13 02:02:00,
2013-04-12 20:12:00,63.0,20.0,29.88,WNW,288,1.0,2.0,19,0.00,,,0.00,,2013-04-13 02:12:00,
2013-04-12 20:22:00,61.0,18.0,29.88,WNW,289,1.0,1.0,19,0.00,,,0.00,,2013-04-13 02:22:00,
2013-04-12 20:32:00,60.0,20.0,29.89,West,279,4.0,4.0,21,0.00,,,0.00,,2013-04-13 02:32:00,
2013-04-12 20:42:00,60.0,20.0,29.89,West,279,4.0,4.0,21,0.00,,,0.00,,2013-04-13 02:42:00,
2013-04-12 20:53:00,62.0,23.0,29.90,WSW,240,7.0,7.0,22,0.00,,,0.00,,2013-04-13 02:53:00,
2013-04-12 21:02:00,63.0,25.0,29.90,SW,224,3.0,4.0,23,0.00,,,0.00,,2013-04-13 03:02:00,
2013-04-12 21:12:00,63.0,25.0,29.90,SW,224,3.0,4.0,23,0.00,,,0.00,,2013-04-13 03:12:00,
2013-04-12 21:22:00,62.0,24.0,29.91,SSW,201,4.0,6.0,23,0.00,,,0.00,,2013-04-13 03:22:00,
2013-04-12 21:33:00,61.0,24.0,29.91,SSW,211,4.0,4.0,24,0.00,,,0.00,,2013-04-13 03:33:00,
2013-04-12 21:42:00,61.0,24.0,29.91,SSW,211,4.0,4.0,24,0.00,,,0.00,,2013-04-13 03:42:00,
2013-04-12 21:53:00,61.0,26.0,29.92,SW,226,4.0,4.0,26,0.00,,,0.00,,2013-04-13 03:53:00,
2013-04-12 22:03:00,60.0,26.0,29.93,SW,232,0.0,2.0,27,0.00,,,0.00,,2013-04-13 04:03:00,
2013-04-12 22:23:00,58.0,25.0,29.94,WSW,238,0.0,4.0,28,0.00,,,0.00,,2013-04-13 04:23:00,
2013-04-12 22:33:00,57.0,25.0,29.94,WSW,238,0.0,0.0,29,0.00,,,0.00,,2013-04-13 04:33:00,
2013-04-12 22:42:00,57.0,25.0,29.94,WSW,238,0.0,0.0,29,0.00,,,0.00,,2013-04-13 04:42:00,
2013-04-12 22:53:00,56.0,25.0,29.94,WSW,238,0.0,2.0,30,0.00,,,0.00,,2013-04-13 04:53:00,
2013-04-12 23:02:00,56.0,25.0,29.95,WSW,238,0.0,0.0,30,0.00,,,0.00,,2013-04-13 05:02:00,
2013-04-12 23:12:00,56.0,25.0,29.95,WSW,238,0.0,0.0,30,0.00,,,0.00,,2013-04-13 05:12:00,
2013-04-12 23:22:00,56.0,25.0,29.95,WSW,238,2.0,4.0,30,0.00,,,0.00,,2013-04-13 05:22:00,
2013-04-12 23:32:00,56.0,26.0,29.96,WSW,242,1.0,4.0,31,0.00,,,0.00,,2013-04-13 05:32:00,
2013-04-12 23:42:00,56.0,26.0,29.96,WSW,242,1.0,4.0,31,0.00,,,0.00,,2013-04-13 05:42:00,
2013-04-12 23:52:00,56.0,26.0,29.96,WSW,257,7.0,7.0,31,0.00,,,0.00,,2013-04-13 05:52:00,